الصفحة الرئيسية
METAR-TAF:

مطار :

سكاكا, السعودية

مطار الجوف المحلي

دائرة عرض: 29-47N, خط طول: 040-06E, ارتفاع: 689 متر

مراقبة الطقس الحالي

تاريخ ووقت الإصدار 27 دقيقة قبل الساعة 06:00UTC
ريح 14 عقدة من الشمال الغربي
درجة الحرارة 33°درجة مئوية
الرطوبة 24%
ضغط 1008 hPa
الرؤية 10 كم أو أكثر
الغيوم لا تقل 1500 م ولا وجود لمزنة ركامية السحاب الأسود

METAR: OESK 260600Z 31014KT CAVOK 33/10 Q1008 NOSIG

زمن: 09:27 (06:27 UTC)

توقعات

تاريخ ووقت الإصدار 7ساعات و 27 دقيقة قبل الساعة 23:00UTC
التوقعات صالحة من26 الساعة 00 UTC إلى 27 الساعة 06 UTC
ريح 6 عقدة من الشمال
الرؤية 10 كم أو أكثر
الغيوم لا تقل 1500 م ولا وجود لمزنة ركامية السحاب الأسود
أصبح
من 26 الساعة 06 UTC إلى 26 الساعة 08 UTC
ريح 15 عقدة من الشمال الشرقي
الرؤية: 7000 متر
سماء صافية

TAF: OESK 252300Z 2600/2706 35006KT CAVOK BECMG 2606/2608 04015KT 7000 SKC

METAR-TAF

أرصاد الطقس والتوقعات من أكثر من 4000 مطار (تقارير الطقس للمطار METAR والتنبؤ بالطقس بالمطارTAF).

المحطات المتاحة هي النقط الصفراء والحمراء على الخريطة.

حرك المؤشر فوق النقطة لمعرفة اسم المحطة.

ثم انقر لمعرفة أرصاد وتوقعات الطقس.

لتغيير الخارطة: اضغط على الأزرار الخضراء مع رمز الصليب الأسود للتكبير. على الزر الأخضر مع شرطة للتصغير، أو على الأسهم الخضراء للخرائط المجاورة.


METAR-TAF: